sensor_id;sensor_type;location;lat;lon;timestamp;temperature;humidity
19348;DHT22;9810;52.480;9.806;2022-08-01T00:02:14;19.40;99.90
19348;DHT22;9810;52.480;9.806;2022-08-01T00:04:41;19.40;99.90
19348;DHT22;9810;52.480;9.806;2022-08-01T00:07:09;19.30;99.90
19348;DHT22;9810;52.480;9.806;2022-08-01T00:09:36;19.30;99.90
19348;DHT22;9810;52.480;9.806;2022-08-01T00:12:04;19.10;99.90
19348;DHT22;9810;52.480;9.806;2022-08-01T00:14:33;19.10;99.90
19348;DHT22;9810;52.480;9.806;2022-08-01T00:17:00;19.00;99.90
19348;DHT22;9810;52.480;9.806;2022-08-01T00:19:27;19.20;99.90
19348;DHT22;9810;52.480;9.806;2022-08-01T00:21:55;19.20;99.90
19348;DHT22;9810;52.480;9.806;2022-08-01T00:24:22;19.30;99.90
19348;DHT22;9810;52.480;9.806;2022-08-01T00:26:49;19.20;99.90
19348;DHT22;9810;52.480;9.806;2022-08-01T00:29:16;19.30;99.90
19348;DHT22;9810;52.480;9.806;2022-08-01T00:31:45;19.40;99.90
19348;DHT22;9810;52.480;9.806;2022-08-01T00:34:12;19.30;99.90
19348;DHT22;9810;52.480;9.806;2022-08-01T00:36:39;19.40;99.90
19348;DHT22;9810;52.480;9.806;2022-08-01T00:39:06;19.40;99.90
19348;DHT22;9810;52.480;9.806;2022-08-01T00:41:34;19.30;99.90
19348;DHT22;9810;52.480;9.806;2022-08-01T00:44:04;19.40;99.90
19348;DHT22;9810;52.480;9.806;2022-08-01T00:46:32;19.30;99.90
19348;DHT22;9810;52.480;9.806;2022-08-01T00:49:01;19.30;99.90
19348;DHT22;9810;52.480;9.806;2022-08-01T00:51:29;19.40;99.90
19348;DHT22;9810;52.480;9.806;2022-08-01T00:53:56;19.40;99.90
19348;DHT22;9810;52.480;9.806;2022-08-01T00:56:25;19.40;99.90
19348;DHT22;9810;52.480;9.806;2022-08-01T00:58:53;19.40;99.90
19348;DHT22;9810;52.480;9.806;2022-08-01T01:01:21;19.40;99.90
19348;DHT22;9810;52.480;9.806;2022-08-01T01:03:48;19.40;99.90
19348;DHT22;9810;52.480;9.806;2022-08-01T01:06:26;19.30;99.90
19348;DHT22;9810;52.480;9.806;2022-08-01T01:09:02;19.30;99.90
19348;DHT22;9810;52.480;9.806;2022-08-01T01:11:41;19.30;99.90
19348;DHT22;9810;52.480;9.806;2022-08-01T01:14:20;19.30;99.90
19348;DHT22;9810;52.480;9.806;2022-08-01T01:16:51;19.40;99.90
19348;DHT22;9810;52.480;9.806;2022-08-01T01:19:24;19.30;99.90
19348;DHT22;9810;52.480;9.806;2022-08-01T01:22:13;19.30;99.90
19348;DHT22;9810;52.480;9.806;2022-08-01T01:24:54;19.30;99.90
19348;DHT22;9810;52.480;9.806;2022-08-01T01:27:39;19.30;99.90
19348;DHT22;9810;52.480;9.806;2022-08-01T01:30:10;19.30;99.90
19348;DHT22;9810;52.480;9.806;2022-08-01T01:32:41;19.30;99.90
19348;DHT22;9810;52.480;9.806;2022-08-01T01:35:15;19.30;99.90
19348;DHT22;9810;52.480;9.806;2022-08-01T01:37:44;19.20;99.90
19348;DHT22;9810;52.480;9.806;2022-08-01T01:40:14;19.20;99.90
19348;DHT22;9810;52.480;9.806;2022-08-01T01:42:43;19.30;99.90
19348;DHT22;9810;52.480;9.806;2022-08-01T01:45:13;19.30;99.90
19348;DHT22;9810;52.480;9.806;2022-08-01T01:47:41;19.20;99.90
19348;DHT22;9810;52.480;9.806;2022-08-01T01:50:10;19.10;99.90
19348;DHT22;9810;52.480;9.806;2022-08-01T01:52:39;19.10;99.90
19348;DHT22;9810;52.480;9.806;2022-08-01T01:55:10;19.10;99.90
19348;DHT22;9810;52.480;9.806;2022-08-01T01:57:40;19.10;99.90
19348;DHT22;9810;52.480;9.806;2022-08-01T02:00:09;19.00;99.90
19348;DHT22;9810;52.480;9.806;2022-08-01T02:02:39;18.90;99.90
19348;DHT22;9810;52.480;9.806;2022-08-01T02:05:09;19.00;99.90
19348;DHT22;9810;52.480;9.806;2022-08-01T02:07:39;19.00;99.90
19348;DHT22;9810;52.480;9.806;2022-08-01T02:10:08;19.00;99.90
19348;DHT22;9810;52.480;9.806;2022-08-01T02:12:40;18.90;99.90
19348;DHT22;9810;52.480;9.806;2022-08-01T02:15:09;18.80;99.90
19348;DHT22;9810;52.480;9.806;2022-08-01T02:17:43;18.70;99.90
19348;DHT22;9810;52.480;9.806;2022-08-01T02:20:11;18.60;99.90
19348;DHT22;9810;52.480;9.806;2022-08-01T02:22:42;18.60;99.90
19348;DHT22;9810;52.480;9.806;2022-08-01T02:25:21;18.70;99.90
19348;DHT22;9810;52.480;9.806;2022-08-01T02:27:54;18.60;99.90
19348;DHT22;9810;52.480;9.806;2022-08-01T02:30:24;18.60;99.90
19348;DHT22;9810;52.480;9.806;2022-08-01T02:32:57;18.60;99.90
19348;DHT22;9810;52.480;9.806;2022-08-01T02:35:28;18.80;99.90
19348;DHT22;9810;52.480;9.806;2022-08-01T02:37:57;18.70;99.90
19348;DHT22;9810;52.480;9.806;2022-08-01T02:40:27;18.70;99.90
19348;DHT22;9810;52.480;9.806;2022-08-01T02:42:56;18.60;99.90
19348;DHT22;9810;52.480;9.806;2022-08-01T02:45:26;18.70;99.90
19348;DHT22;9810;52.480;9.806;2022-08-01T02:47:59;18.70;99.90
19348;DHT22;9810;52.480;9.806;2022-08-01T02:50:29;18.70;99.90
19348;DHT22;9810;52.480;9.806;2022-08-01T02:53:00;18.70;99.90
19348;DHT22;9810;52.480;9.806;2022-08-01T02:55:29;18.70;99.90
19348;DHT22;9810;52.480;9.806;2022-08-01T02:57:59;18.70;99.90
19348;DHT22;9810;52.480;9.806;2022-08-01T03:00:28;18.70;99.90
19348;DHT22;9810;52.480;9.806;2022-08-01T03:02:59;18.60;99.90
19348;DHT22;9810;52.480;9.806;2022-08-01T03:05:27;18.60;99.90
19348;DHT22;9810;52.480;9.806;2022-08-01T03:07:55;18.50;99.90
19348;DHT22;9810;52.480;9.806;2022-08-01T03:10:24;18.50;99.90
19348;DHT22;9810;52.480;9.806;2022-08-01T03:12:54;18.50;99.90
19348;DHT22;9810;52.480;9.806;2022-08-01T03:15:23;18.60;99.90
19348;DHT22;9810;52.480;9.806;2022-08-01T03:17:53;18.60;99.90
19348;DHT22;9810;52.480;9.806;2022-08-01T03:20:25;18.60;99.90
19348;DHT22;9810;52.480;9.806;2022-08-01T03:22:53;18.50;99.90
19348;DHT22;9810;52.480;9.806;2022-08-01T03:25:21;18.50;99.90
19348;DHT22;9810;52.480;9.806;2022-08-01T03:27:54;18.60;99.90
19348;DHT22;9810;52.480;9.806;2022-08-01T03:30:23;18.60;99.90
19348;DHT22;9810;52.480;9.806;2022-08-01T03:32:52;18.50;99.90
19348;DHT22;9810;52.480;9.806;2022-08-01T03:35:19;18.50;99.90
19348;DHT22;9810;52.480;9.806;2022-08-01T03:37:52;18.50;99.90
19348;DHT22;9810;52.480;9.806;2022-08-01T03:40:24;18.40;99.90
19348;DHT22;9810;52.480;9.806;2022-08-01T03:42:56;18.40;99.90
19348;DHT22;9810;52.480;9.806;2022-08-01T03:45:26;18.30;99.90
19348;DHT22;9810;52.480;9.806;2022-08-01T03:47:58;18.20;99.90
19348;DHT22;9810;52.480;9.806;2022-08-01T03:50:27;18.10;99.90
19348;DHT22;9810;52.480;9.806;2022-08-01T03:52:59;18.10;99.90
19348;DHT22;9810;52.480;9.806;2022-08-01T03:55:28;18.10;99.90
19348;DHT22;9810;52.480;9.806;2022-08-01T03:57:57;18.10;99.90
19348;DHT22;9810;52.480;9.806;2022-08-01T04:00:26;18.10;99.90
19348;DHT22;9810;52.480;9.806;2022-08-01T04:02:54;18.10;99.90
19348;DHT22;9810;52.480;9.806;2022-08-01T04:05:22;18.30;99.90
19348;DHT22;9810;52.480;9.806;2022-08-01T04:07:50;18.10;99.90
19348;DHT22;9810;52.480;9.806;2022-08-01T04:10:23;18.20;99.90
19348;DHT22;9810;52.480;9.806;2022-08-01T04:12:50;18.20;99.90
19348;DHT22;9810;52.480;9.806;2022-08-01T04:15:18;18.20;99.90
19348;DHT22;9810;52.480;9.806;2022-08-01T04:17:46;18.20;99.90
19348;DHT22;9810;52.480;9.806;2022-08-01T04:20:14;18.20;99.90
19348;DHT22;9810;52.480;9.806;2022-08-01T04:22:42;18.20;99.90
19348;DHT22;9810;52.480;9.806;2022-08-01T04:25:12;18.20;99.90
19348;DHT22;9810;52.480;9.806;2022-08-01T04:27:46;18.30;99.90
19348;DHT22;9810;52.480;9.806;2022-08-01T04:30:15;18.20;99.90
19348;DHT22;9810;52.480;9.806;2022-08-01T04:32:45;18.20;99.90
19348;DHT22;9810;52.480;9.806;2022-08-01T04:35:14;18.40;99.90
19348;DHT22;9810;52.480;9.806;2022-08-01T04:37:44;18.50;99.90
19348;DHT22;9810;52.480;9.806;2022-08-01T04:40:13;18.40;99.90
19348;DHT22;9810;52.480;9.806;2022-08-01T04:42:43;18.50;99.90
19348;DHT22;9810;52.480;9.806;2022-08-01T04:45:11;18.40;99.90
19348;DHT22;9810;52.480;9.806;2022-08-01T04:47:39;18.40;99.90
19348;DHT22;9810;52.480;9.806;2022-08-01T04:50:09;18.40;99.90
19348;DHT22;9810;52.480;9.806;2022-08-01T04:52:37;18.50;99.90
19348;DHT22;9810;52.480;9.806;2022-08-01T04:55:08;18.50;99.90
19348;DHT22;9810;52.480;9.806;2022-08-01T04:57:39;18.50;99.90
19348;DHT22;9810;52.480;9.806;2022-08-01T05:00:10;18.60;99.90
19348;DHT22;9810;52.480;9.806;2022-08-01T05:02:37;18.70;99.90
19348;DHT22;9810;52.480;9.806;2022-08-01T05:05:05;18.80;99.90
19348;DHT22;9810;52.480;9.806;2022-08-01T05:07:33;18.80;99.90
19348;DHT22;9810;52.480;9.806;2022-08-01T05:10:02;18.80;99.90
19348;DHT22;9810;52.480;9.806;2022-08-01T05:12:30;19.00;99.90
19348;DHT22;9810;52.480;9.806;2022-08-01T05:14:58;19.10;99.90
19348;DHT22;9810;52.480;9.806;2022-08-01T05:17:27;19.10;99.90
19348;DHT22;9810;52.480;9.806;2022-08-01T05:19:54;19.20;99.90
19348;DHT22;9810;52.480;9.806;2022-08-01T05:22:21;19.20;99.90
19348;DHT22;9810;52.480;9.806;2022-08-01T05:24:51;19.00;99.90
19348;DHT22;9810;52.480;9.806;2022-08-01T05:27:19;19.00;99.90
19348;DHT22;9810;52.480;9.806;2022-08-01T05:29:46;19.10;99.90
19348;DHT22;9810;52.480;9.806;2022-08-01T05:32:14;19.10;99.90
19348;DHT22;9810;52.480;9.806;2022-08-01T05:34:43;19.10;99.90
19348;DHT22;9810;52.480;9.806;2022-08-01T05:37:10;19.00;99.90
19348;DHT22;9810;52.480;9.806;2022-08-01T05:39:37;18.70;99.90
19348;DHT22;9810;52.480;9.806;2022-08-01T05:42:05;18.60;99.90
19348;DHT22;9810;52.480;9.806;2022-08-01T05:44:32;18.60;99.90
19348;DHT22;9810;52.480;9.806;2022-08-01T05:46:59;18.60;99.90
19348;DHT22;9810;52.480;9.806;2022-08-01T05:49:28;18.60;99.90
19348;DHT22;9810;52.480;9.806;2022-08-01T05:51:57;18.40;99.90
19348;DHT22;9810;52.480;9.806;2022-08-01T05:54:26;18.40;99.90
19348;DHT22;9810;52.480;9.806;2022-08-01T05:56:53;18.40;99.90
19348;DHT22;9810;52.480;9.806;2022-08-01T05:59:25;18.40;99.90
19348;DHT22;9810;52.480;9.806;2022-08-01T06:01:52;18.40;99.90
19348;DHT22;9810;52.480;9.806;2022-08-01T06:04:19;18.40;99.90
19348;DHT22;9810;52.480;9.806;2022-08-01T06:06:47;18.50;99.90
19348;DHT22;9810;52.480;9.806;2022-08-01T06:09:16;18.40;99.90
19348;DHT22;9810;52.480;9.806;2022-08-01T06:11:43;18.40;99.90
19348;DHT22;9810;52.480;9.806;2022-08-01T06:14:10;18.40;99.90
19348;DHT22;9810;52.480;9.806;2022-08-01T06:16:37;18.40;99.90
19348;DHT22;9810;52.480;9.806;2022-08-01T06:19:05;18.40;99.90
19348;DHT22;9810;52.480;9.806;2022-08-01T06:21:32;18.50;99.90
19348;DHT22;9810;52.480;9.806;2022-08-01T06:23:59;18.70;99.90
19348;DHT22;9810;52.480;9.806;2022-08-01T06:26:28;18.90;99.90
19348;DHT22;9810;52.480;9.806;2022-08-01T06:28:56;18.70;99.90
19348;DHT22;9810;52.480;9.806;2022-08-01T06:31:23;18.70;99.90
19348;DHT22;9810;52.480;9.806;2022-08-01T06:33:51;18.60;99.90
19348;DHT22;9810;52.480;9.806;2022-08-01T06:36:18;18.60;99.90
19348;DHT22;9810;52.480;9.806;2022-08-01T06:38:45;18.80;99.90
19348;DHT22;9810;52.480;9.806;2022-08-01T06:41:12;18.60;99.90
19348;DHT22;9810;52.480;9.806;2022-08-01T06:43:41;18.60;99.90
19348;DHT22;9810;52.480;9.806;2022-08-01T06:46:08;18.70;99.90
19348;DHT22;9810;52.480;9.806;2022-08-01T06:48:36;18.90;99.90
19348;DHT22;9810;52.480;9.806;2022-08-01T06:51:04;19.20;99.90
19348;DHT22;9810;52.480;9.806;2022-08-01T06:53:35;19.30;99.90
19348;DHT22;9810;52.480;9.806;2022-08-01T06:56:03;19.50;99.90
19348;DHT22;9810;52.480;9.806;2022-08-01T06:58:31;19.60;99.90
19348;DHT22;9810;52.480;9.806;2022-08-01T07:01:02;19.70;99.90
19348;DHT22;9810;52.480;9.806;2022-08-01T07:03:31;19.80;99.90
19348;DHT22;9810;52.480;9.806;2022-08-01T07:05:58;19.90;99.90
19348;DHT22;9810;52.480;9.806;2022-08-01T07:08:26;20.10;99.90
19348;DHT22;9810;52.480;9.806;2022-08-01T07:10:53;20.30;99.90
19348;DHT22;9810;52.480;9.806;2022-08-01T07:13:21;20.20;99.90
19348;DHT22;9810;52.480;9.806;2022-08-01T07:15:51;20.40;99.90
19348;DHT22;9810;52.480;9.806;2022-08-01T07:18:20;20.60;99.90
19348;DHT22;9810;52.480;9.806;2022-08-01T07:20:48;20.70;99.90
19348;DHT22;9810;52.480;9.806;2022-08-01T07:23:15;20.90;99.90
19348;DHT22;9810;52.480;9.806;2022-08-01T07:25:43;20.50;99.90
19348;DHT22;9810;52.480;9.806;2022-08-01T07:28:10;20.10;99.90
19348;DHT22;9810;52.480;9.806;2022-08-01T07:30:37;19.90;99.90
19348;DHT22;9810;52.480;9.806;2022-08-01T07:33:07;19.70;99.90
19348;DHT22;9810;52.480;9.806;2022-08-01T07:35:36;19.70;99.90
19348;DHT22;9810;52.480;9.806;2022-08-01T07:38:04;19.60;99.90
19348;DHT22;9810;52.480;9.806;2022-08-01T07:40:32;19.30;99.90
19348;DHT22;9810;52.480;9.806;2022-08-01T07:42:59;19.30;99.90
19348;DHT22;9810;52.480;9.806;2022-08-01T07:45:26;19.20;99.90
19348;DHT22;9810;52.480;9.806;2022-08-01T07:47:54;19.10;99.90
19348;DHT22;9810;52.480;9.806;2022-08-01T07:50:21;19.00;99.90
19348;DHT22;9810;52.480;9.806;2022-08-01T07:52:50;19.10;99.90
19348;DHT22;9810;52.480;9.806;2022-08-01T07:55:17;19.20;99.90
19348;DHT22;9810;52.480;9.806;2022-08-01T07:57:44;19.40;99.90
19348;DHT22;9810;52.480;9.806;2022-08-01T08:00:12;19.40;99.90
19348;DHT22;9810;52.480;9.806;2022-08-01T08:02:39;19.90;99.90
19348;DHT22;9810;52.480;9.806;2022-08-01T08:05:07;20.30;99.90
19348;DHT22;9810;52.480;9.806;2022-08-01T08:07:35;20.50;99.90
19348;DHT22;9810;52.480;9.806;2022-08-01T08:10:05;21.00;99.90
19348;DHT22;9810;52.480;9.806;2022-08-01T08:12:32;20.80;99.90
19348;DHT22;9810;52.480;9.806;2022-08-01T08:15:00;20.70;99.90
19348;DHT22;9810;52.480;9.806;2022-08-01T08:17:27;20.60;99.90
19348;DHT22;9810;52.480;9.806;2022-08-01T08:19:54;20.80;99.90
19348;DHT22;9810;52.480;9.806;2022-08-01T08:22:21;20.40;99.90
19348;DHT22;9810;52.480;9.806;2022-08-01T08:24:49;20.30;99.90
19348;DHT22;9810;52.480;9.806;2022-08-01T08:27:18;20.30;99.90
19348;DHT22;9810;52.480;9.806;2022-08-01T08:29:45;20.40;99.90
19348;DHT22;9810;52.480;9.806;2022-08-01T08:32:12;20.40;99.90
19348;DHT22;9810;52.480;9.806;2022-08-01T08:34:40;20.50;99.90
19348;DHT22;9810;52.480;9.806;2022-08-01T08:37:07;20.30;99.90
19348;DHT22;9810;52.480;9.806;2022-08-01T08:39:35;20.20;99.90
19348;DHT22;9810;52.480;9.806;2022-08-01T08:42:06;20.10;99.90
19348;DHT22;9810;52.480;9.806;2022-08-01T08:44:35;20.10;99.90
19348;DHT22;9810;52.480;9.806;2022-08-01T08:47:03;20.10;99.90
19348;DHT22;9810;52.480;9.806;2022-08-01T08:49:32;20.10;99.90
19348;DHT22;9810;52.480;9.806;2022-08-01T08:52:02;20.30;99.90
19348;DHT22;9810;52.480;9.806;2022-08-01T08:54:30;20.20;99.90
19348;DHT22;9810;52.480;9.806;2022-08-01T08:56:59;20.20;99.90
19348;DHT22;9810;52.480;9.806;2022-08-01T08:59:26;20.00;99.90
19348;DHT22;9810;52.480;9.806;2022-08-01T09:01:56;20.30;99.90
19348;DHT22;9810;52.480;9.806;2022-08-01T09:04:24;20.80;99.90
19348;DHT22;9810;52.480;9.806;2022-08-01T09:06:51;21.20;99.90
19348;DHT22;9810;52.480;9.806;2022-08-01T09:09:18;21.30;99.90
19348;DHT22;9810;52.480;9.806;2022-08-01T09:11:45;21.70;99.90
19348;DHT22;9810;52.480;9.806;2022-08-01T09:14:15;21.70;99.90
19348;DHT22;9810;52.480;9.806;2022-08-01T09:16:58;22.00;99.90
19348;DHT22;9810;52.480;9.806;2022-08-01T09:19:34;21.70;99.90
19348;DHT22;9810;52.480;9.806;2022-08-01T09:22:03;21.60;99.90
19348;DHT22;9810;52.480;9.806;2022-08-01T09:24:31;21.50;99.90
19348;DHT22;9810;52.480;9.806;2022-08-01T09:27:00;21.90;99.90
19348;DHT22;9810;52.480;9.806;2022-08-01T09:29:30;21.70;99.90
19348;DHT22;9810;52.480;9.806;2022-08-01T09:31:58;21.40;99.90
19348;DHT22;9810;52.480;9.806;2022-08-01T09:34:28;21.40;99.90
19348;DHT22;9810;52.480;9.806;2022-08-01T09:36:58;21.50;99.90
19348;DHT22;9810;52.480;9.806;2022-08-01T09:39:27;21.60;99.90
19348;DHT22;9810;52.480;9.806;2022-08-01T09:41:57;21.60;99.90
19348;DHT22;9810;52.480;9.806;2022-08-01T09:44:38;21.80;99.90
19348;DHT22;9810;52.480;9.806;2022-08-01T09:47:06;21.60;99.90
19348;DHT22;9810;52.480;9.806;2022-08-01T09:49:36;21.60;99.90
19348;DHT22;9810;52.480;9.806;2022-08-01T09:52:12;21.50;99.90
19348;DHT22;9810;52.480;9.806;2022-08-01T09:54:39;21.40;99.90
19348;DHT22;9810;52.480;9.806;2022-08-01T09:57:10;21.30;99.90
19348;DHT22;9810;52.480;9.806;2022-08-01T09:59:38;21.10;99.90
19348;DHT22;9810;52.480;9.806;2022-08-01T10:02:08;20.60;99.90
19348;DHT22;9810;52.480;9.806;2022-08-01T10:04:37;20.50;99.90
19348;DHT22;9810;52.480;9.806;2022-08-01T10:07:07;20.20;99.90
19348;DHT22;9810;52.480;9.806;2022-08-01T10:09:35;20.10;99.90
19348;DHT22;9810;52.480;9.806;2022-08-01T10:12:04;20.00;99.90
19348;DHT22;9810;52.480;9.806;2022-08-01T10:14:31;19.90;99.90
19348;DHT22;9810;52.480;9.806;2022-08-01T10:17:00;20.20;99.90
19348;DHT22;9810;52.480;9.806;2022-08-01T10:19:29;20.50;99.90
19348;DHT22;9810;52.480;9.806;2022-08-01T10:21:58;20.90;99.90
19348;DHT22;9810;52.480;9.806;2022-08-01T10:24:29;21.00;99.90
19348;DHT22;9810;52.480;9.806;2022-08-01T10:26:59;21.00;99.90
19348;DHT22;9810;52.480;9.806;2022-08-01T10:29:39;21.30;99.90
19348;DHT22;9810;52.480;9.806;2022-08-01T10:32:07;21.20;99.90
19348;DHT22;9810;52.480;9.806;2022-08-01T10:34:36;20.80;99.90
19348;DHT22;9810;52.480;9.806;2022-08-01T10:37:05;20.70;99.90
19348;DHT22;9810;52.480;9.806;2022-08-01T10:39:34;20.50;99.90
19348;DHT22;9810;52.480;9.806;2022-08-01T10:42:02;20.40;99.90
19348;DHT22;9810;52.480;9.806;2022-08-01T10:44:30;20.40;99.90
19348;DHT22;9810;52.480;9.806;2022-08-01T10:47:05;20.70;99.90
19348;DHT22;9810;52.480;9.806;2022-08-01T10:49:36;20.80;99.90
19348;DHT22;9810;52.480;9.806;2022-08-01T10:52:09;21.20;99.90
19348;DHT22;9810;52.480;9.806;2022-08-01T10:54:40;21.00;99.90
19348;DHT22;9810;52.480;9.806;2022-08-01T10:57:08;21.50;99.90
19348;DHT22;9810;52.480;9.806;2022-08-01T10:59:47;22.20;99.90
19348;DHT22;9810;52.480;9.806;2022-08-01T11:02:27;22.90;99.90
19348;DHT22;9810;52.480;9.806;2022-08-01T11:04:57;23.80;99.90
19348;DHT22;9810;52.480;9.806;2022-08-01T11:07:42;24.30;99.90
19348;DHT22;9810;52.480;9.806;2022-08-01T11:10:19;24.10;99.90
19348;DHT22;9810;52.480;9.806;2022-08-01T11:12:48;23.90;99.90
19348;DHT22;9810;52.480;9.806;2022-08-01T11:15:18;23.80;99.90
19348;DHT22;9810;52.480;9.806;2022-08-01T11:17:51;23.30;99.90
19348;DHT22;9810;52.480;9.806;2022-08-01T11:20:20;23.30;99.90
19348;DHT22;9810;52.480;9.806;2022-08-01T11:26:22;23.00;99.90
19348;DHT22;9810;52.480;9.806;2022-08-01T11:29:12;23.20;99.90
19348;DHT22;9810;52.480;9.806;2022-08-01T11:31:40;23.40;99.90
19348;DHT22;9810;52.480;9.806;2022-08-01T11:34:07;23.30;99.90
19348;DHT22;9810;52.480;9.806;2022-08-01T11:36:37;22.80;99.90
19348;DHT22;9810;52.480;9.806;2022-08-01T11:39:12;22.70;99.90
19348;DHT22;9810;52.480;9.806;2022-08-01T11:41:42;22.70;99.90
19348;DHT22;9810;52.480;9.806;2022-08-01T11:44:12;22.90;99.90
19348;DHT22;9810;52.480;9.806;2022-08-01T11:47:00;23.30;99.90
19348;DHT22;9810;52.480;9.806;2022-08-01T11:49:33;23.00;99.90
19348;DHT22;9810;52.480;9.806;2022-08-01T11:52:04;23.20;99.90
19348;DHT22;9810;52.480;9.806;2022-08-01T11:54:33;23.70;99.90
19348;DHT22;9810;52.480;9.806;2022-08-01T11:57:04;23.90;99.90
19348;DHT22;9810;52.480;9.806;2022-08-01T11:59:43;24.00;99.90
19348;DHT22;9810;52.480;9.806;2022-08-01T12:02:22;24.00;99.90
19348;DHT22;9810;52.480;9.806;2022-08-01T12:04:52;23.70;99.90
19348;DHT22;9810;52.480;9.806;2022-08-01T12:07:21;24.20;99.90
19348;DHT22;9810;52.480;9.806;2022-08-01T12:09:56;24.40;99.90
19348;DHT22;9810;52.480;9.806;2022-08-01T12:12:26;24.40;99.90
19348;DHT22;9810;52.480;9.806;2022-08-01T12:14:54;24.50;99.90
19348;DHT22;9810;52.480;9.806;2022-08-01T12:17:30;24.20;99.90
19348;DHT22;9810;52.480;9.806;2022-08-01T12:19:58;23.80;99.90
19348;DHT22;9810;52.480;9.806;2022-08-01T12:22:25;23.80;99.90
19348;DHT22;9810;52.480;9.806;2022-08-01T12:24:52;23.80;99.90
19348;DHT22;9810;52.480;9.806;2022-08-01T12:27:29;24.10;99.90
19348;DHT22;9810;52.480;9.806;2022-08-01T12:29:58;23.60;99.90
19348;DHT22;9810;52.480;9.806;2022-08-01T12:32:27;23.90;99.90
19348;DHT22;9810;52.480;9.806;2022-08-01T12:34:57;24.30;99.90
19348;DHT22;9810;52.480;9.806;2022-08-01T12:37:27;24.60;99.90
19348;DHT22;9810;52.480;9.806;2022-08-01T12:39:55;24.30;99.90
19348;DHT22;9810;52.480;9.806;2022-08-01T12:42:24;24.40;99.90
19348;DHT22;9810;52.480;9.806;2022-08-01T12:44:53;24.40;99.90
19348;DHT22;9810;52.480;9.806;2022-08-01T12:47:21;24.20;99.90
19348;DHT22;9810;52.480;9.806;2022-08-01T12:49:49;24.10;99.90
19348;DHT22;9810;52.480;9.806;2022-08-01T12:52:16;24.30;99.90
19348;DHT22;9810;52.480;9.806;2022-08-01T12:55:08;23.90;99.90
19348;DHT22;9810;52.480;9.806;2022-08-01T12:57:38;23.50;99.90
19348;DHT22;9810;52.480;9.806;2022-08-01T13:00:11;23.40;99.90
19348;DHT22;9810;52.480;9.806;2022-08-01T13:02:40;23.50;99.90
19348;DHT22;9810;52.480;9.806;2022-08-01T13:05:08;23.30;99.90
19348;DHT22;9810;52.480;9.806;2022-08-01T13:07:37;23.60;99.90
19348;DHT22;9810;52.480;9.806;2022-08-01T13:10:06;23.20;99.90
19348;DHT22;9810;52.480;9.806;2022-08-01T13:12:34;23.00;99.90
19348;DHT22;9810;52.480;9.806;2022-08-01T13:28:26;22.70;99.90
19348;DHT22;9810;52.480;9.806;2022-08-01T13:30:57;23.70;99.90
19348;DHT22;9810;52.480;9.806;2022-08-01T13:33:25;23.70;99.90
19348;DHT22;9810;52.480;9.806;2022-08-01T13:35:54;24.00;99.90
19348;DHT22;9810;52.480;9.806;2022-08-01T13:38:22;24.00;99.90
19348;DHT22;9810;52.480;9.806;2022-08-01T13:41:09;23.90;99.90
19348;DHT22;9810;52.480;9.806;2022-08-01T13:43:38;24.40;99.90
19348;DHT22;9810;52.480;9.806;2022-08-01T13:46:06;24.50;99.90
19348;DHT22;9810;52.480;9.806;2022-08-01T13:48:33;24.40;99.90
19348;DHT22;9810;52.480;9.806;2022-08-01T13:51:00;24.10;99.90
19348;DHT22;9810;52.480;9.806;2022-08-01T13:53:27;24.00;99.90
19348;DHT22;9810;52.480;9.806;2022-08-01T13:55:55;24.00;99.90
19348;DHT22;9810;52.480;9.806;2022-08-01T13:58:22;24.00;99.90
19348;DHT22;9810;52.480;9.806;2022-08-01T14:00:51;24.20;99.90
19348;DHT22;9810;52.480;9.806;2022-08-01T14:03:18;24.30;99.90
19348;DHT22;9810;52.480;9.806;2022-08-01T14:05:45;24.20;99.90
19348;DHT22;9810;52.480;9.806;2022-08-01T14:08:12;23.70;99.90
19348;DHT22;9810;52.480;9.806;2022-08-01T14:10:39;23.50;99.90
19348;DHT22;9810;52.480;9.806;2022-08-01T14:13:07;23.70;99.90
19348;DHT22;9810;52.480;9.806;2022-08-01T14:15:34;23.90;99.90
19348;DHT22;9810;52.480;9.806;2022-08-01T14:18:03;24.00;99.90
19348;DHT22;9810;52.480;9.806;2022-08-01T14:20:31;23.90;99.90
19348;DHT22;9810;52.480;9.806;2022-08-01T14:22:58;23.70;99.90
19348;DHT22;9810;52.480;9.806;2022-08-01T14:25:26;23.50;99.90
19348;DHT22;9810;52.480;9.806;2022-08-01T14:27:53;23.40;99.90
19348;DHT22;9810;52.480;9.806;2022-08-01T14:30:20;23.30;99.90
19348;DHT22;9810;52.480;9.806;2022-08-01T14:32:47;23.70;99.90
19348;DHT22;9810;52.480;9.806;2022-08-01T14:35:16;23.90;99.90
19348;DHT22;9810;52.480;9.806;2022-08-01T14:37:43;23.70;99.90
19348;DHT22;9810;52.480;9.806;2022-08-01T14:40:10;23.50;99.90
19348;DHT22;9810;52.480;9.806;2022-08-01T14:42:38;23.80;99.90
19348;DHT22;9810;52.480;9.806;2022-08-01T14:45:06;23.90;99.90
19348;DHT22;9810;52.480;9.806;2022-08-01T14:47:35;23.70;99.90
19348;DHT22;9810;52.480;9.806;2022-08-01T14:50:04;23.50;99.90
19348;DHT22;9810;52.480;9.806;2022-08-01T14:52:34;23.60;99.90
19348;DHT22;9810;52.480;9.806;2022-08-01T14:55:02;23.40;99.90
19348;DHT22;9810;52.480;9.806;2022-08-01T14:57:30;23.70;99.90
19348;DHT22;9810;52.480;9.806;2022-08-01T14:59:57;23.90;99.90
19348;DHT22;9810;52.480;9.806;2022-08-01T15:02:25;23.70;99.90
19348;DHT22;9810;52.480;9.806;2022-08-01T15:04:52;23.70;99.90
19348;DHT22;9810;52.480;9.806;2022-08-01T15:07:20;23.60;99.90
19348;DHT22;9810;52.480;9.806;2022-08-01T15:09:48;23.30;99.90
19348;DHT22;9810;52.480;9.806;2022-08-01T15:12:15;23.20;99.90
19348;DHT22;9810;52.480;9.806;2022-08-01T15:14:42;23.30;99.90
19348;DHT22;9810;52.480;9.806;2022-08-01T15:17:16;23.10;99.90
19348;DHT22;9810;52.480;9.806;2022-08-01T15:19:44;23.10;99.90
19348;DHT22;9810;52.480;9.806;2022-08-01T15:22:11;23.20;99.90
19348;DHT22;9810;52.480;9.806;2022-08-01T15:24:39;23.10;99.90
19348;DHT22;9810;52.480;9.806;2022-08-01T15:27:09;23.10;99.90
19348;DHT22;9810;52.480;9.806;2022-08-01T15:29:36;23.10;99.90
19348;DHT22;9810;52.480;9.806;2022-08-01T15:32:05;23.10;99.90
19348;DHT22;9810;52.480;9.806;2022-08-01T15:34:33;23.00;99.90
19348;DHT22;9810;52.480;9.806;2022-08-01T15:37:01;23.00;99.90
19348;DHT22;9810;52.480;9.806;2022-08-01T15:39:28;22.80;99.90
19348;DHT22;9810;52.480;9.806;2022-08-01T15:41:58;23.00;99.90
19348;DHT22;9810;52.480;9.806;2022-08-01T15:44:27;23.00;99.90
19348;DHT22;9810;52.480;9.806;2022-08-01T15:46:54;23.20;99.90
19348;DHT22;9810;52.480;9.806;2022-08-01T15:49:21;23.30;99.90
19348;DHT22;9810;52.480;9.806;2022-08-01T15:51:49;23.20;99.90
19348;DHT22;9810;52.480;9.806;2022-08-01T15:54:17;23.40;99.90
19348;DHT22;9810;52.480;9.806;2022-08-01T15:56:44;23.40;99.90
19348;DHT22;9810;52.480;9.806;2022-08-01T15:59:12;23.40;99.90
19348;DHT22;9810;52.480;9.806;2022-08-01T16:01:41;23.50;99.90
19348;DHT22;9810;52.480;9.806;2022-08-01T16:04:09;23.70;99.90
19348;DHT22;9810;52.480;9.806;2022-08-01T16:06:36;23.50;99.90
19348;DHT22;9810;52.480;9.806;2022-08-01T16:09:04;23.60;99.90
19348;DHT22;9810;52.480;9.806;2022-08-01T16:11:32;23.40;99.90
19348;DHT22;9810;52.480;9.806;2022-08-01T16:13:59;23.30;99.90
19348;DHT22;9810;52.480;9.806;2022-08-01T16:16:27;23.00;99.90